createdAt,value
2022-12-18T00:00:02.905Z,97326.94
2022-12-18T00:02:48.011Z,97321.09
2022-12-18T00:05:33.276Z,97329.00
2022-12-18T00:08:18.118Z,97324.00
2022-12-18T00:11:03.054Z,97330.13
2022-12-18T00:13:52.039Z,97329.69
2022-12-18T00:16:36.915Z,97337.56
2022-12-18T00:19:21.849Z,97344.53
2022-12-18T00:22:06.715Z,97333.13
2022-12-18T00:24:51.590Z,97337.03
2022-12-18T00:27:36.369Z,97346.22
2022-12-18T00:30:21.232Z,97337.31
2022-12-18T00:33:06.123Z,97335.66
2022-12-18T00:35:50.971Z,97341.16
2022-12-18T00:38:35.881Z,97349.75
2022-12-18T00:41:20.683Z,97347.56
2022-12-18T00:44:05.598Z,97347.13
2022-12-18T00:46:50.512Z,97337.16
2022-12-18T00:49:35.513Z,97344.25
2022-12-18T00:52:20.293Z,97335.59
2022-12-18T00:55:06.553Z,97352.81
2022-12-18T00:57:51.710Z,97359.06
2022-12-18T01:00:36.646Z,97358.56
2022-12-18T01:03:21.472Z,97365.16
2022-12-18T01:06:06.320Z,97362.38
2022-12-18T01:08:51.469Z,97372.88
2022-12-18T01:11:36.222Z,97377.31
2022-12-18T01:14:21.228Z,97376.06
2022-12-18T01:17:06.140Z,97380.03
2022-12-18T01:19:51.201Z,97384.47
2022-12-18T01:22:36.033Z,97382.19
2022-12-18T01:25:20.853Z,97376.50
2022-12-18T01:28:05.923Z,97379.75
2022-12-18T01:30:50.709Z,97391.31
2022-12-18T01:33:35.714Z,97402.69
2022-12-18T01:36:20.965Z,97412.25
2022-12-18T01:39:06.017Z,97407.16
2022-12-18T01:41:50.877Z,97425.63
2022-12-18T01:44:35.801Z,97425.81
2022-12-18T01:47:20.840Z,97412.84
2022-12-18T01:50:05.755Z,97418.13
2022-12-18T01:52:50.595Z,97418.09
2022-12-18T01:55:35.583Z,97425.97
2022-12-18T01:58:20.414Z,97431.00
2022-12-18T02:01:05.474Z,97428.91
2022-12-18T02:03:50.302Z,97435.69
2022-12-18T02:06:35.079Z,97433.22
2022-12-18T02:09:19.876Z,97441.09
2022-12-18T02:12:04.760Z,97454.31
2022-12-18T02:14:49.665Z,97442.31
2022-12-18T02:17:34.526Z,97447.38
2022-12-18T02:20:19.521Z,97457.81
2022-12-18T02:23:04.450Z,97451.53
2022-12-18T02:25:49.265Z,97453.31
2022-12-18T02:28:34.108Z,97455.03
2022-12-18T02:31:19.040Z,97459.13
2022-12-18T02:34:03.955Z,97453.13
2022-12-18T02:36:49.037Z,97457.41
2022-12-18T02:39:33.881Z,97453.44
2022-12-18T02:42:18.991Z,97447.78
2022-12-18T02:45:03.974Z,97453.91
2022-12-18T02:47:48.861Z,97452.06
2022-12-18T02:50:33.797Z,97453.38
2022-12-18T02:53:18.760Z,97449.72
2022-12-18T02:56:03.533Z,97456.88
2022-12-18T02:58:48.537Z,97449.66
2022-12-18T03:01:33.727Z,97461.69
2022-12-18T03:04:19.005Z,97457.06
2022-12-18T03:07:03.997Z,97459.13
2022-12-18T03:09:48.889Z,97466.06
2022-12-18T03:12:33.882Z,97466.97
2022-12-18T03:15:18.789Z,97470.34
2022-12-18T03:18:03.681Z,97471.09
2022-12-18T03:20:48.605Z,97463.28
2022-12-18T03:23:33.530Z,97465.03
2022-12-18T03:26:18.584Z,97461.59
2022-12-18T03:29:03.426Z,97458.28
2022-12-18T03:31:48.460Z,97453.84
2022-12-18T03:34:33.305Z,97454.50
2022-12-18T03:37:18.406Z,97460.22
2022-12-18T03:40:03.295Z,97458.94
2022-12-18T03:42:48.338Z,97457.56
2022-12-18T03:45:33.239Z,97462.88
2022-12-18T03:48:18.190Z,97463.50
2022-12-18T03:51:03.180Z,97459.97
2022-12-18T03:53:48.100Z,97455.56
2022-12-18T03:56:33.012Z,97461.81
2022-12-18T03:59:17.962Z,97462.59
2022-12-18T04:02:02.895Z,97458.38
2022-12-18T04:04:47.949Z,97464.88
2022-12-18T04:07:32.956Z,97461.00
2022-12-18T04:10:18.001Z,97470.13
2022-12-18T04:13:02.919Z,97467.69
2022-12-18T04:15:47.916Z,97468.56
2022-12-18T04:18:32.798Z,97461.56
2022-12-18T04:21:17.802Z,97462.88
2022-12-18T04:24:02.579Z,97469.44
2022-12-18T04:26:47.576Z,97466.13
2022-12-18T04:29:32.262Z,97461.28
2022-12-18T04:32:17.253Z,97465.41
2022-12-18T04:35:02.067Z,97466.31
2022-12-18T04:37:47.024Z,97468.81
2022-12-18T04:40:31.911Z,97469.78
2022-12-18T04:43:16.880Z,97482.53
2022-12-18T04:46:01.816Z,97484.75
2022-12-18T04:48:46.554Z,97485.78
2022-12-18T04:51:31.491Z,97476.41
2022-12-18T04:54:16.376Z,97484.47
2022-12-18T04:57:01.269Z,97483.78
2022-12-18T04:59:46.203Z,97497.06
2022-12-18T05:02:31.162Z,97492.09
2022-12-18T05:05:16.523Z,97497.78
2022-12-18T05:08:01.342Z,97503.38
2022-12-18T05:10:46.895Z,97505.16
2022-12-18T05:13:31.777Z,97503.09
2022-12-18T05:16:16.845Z,97506.75
2022-12-18T05:19:01.627Z,97515.94
2022-12-18T05:21:46.665Z,97514.63
2022-12-18T05:24:31.608Z,97510.34
2022-12-18T05:27:16.609Z,97511.94
2022-12-18T05:30:01.462Z,97515.06
2022-12-18T05:32:46.367Z,97513.63
2022-12-18T05:35:31.334Z,97514.91
2022-12-18T05:38:16.251Z,97518.97
2022-12-18T05:41:01.134Z,97516.03
2022-12-18T05:43:45.981Z,97521.97
2022-12-18T05:46:30.991Z,97517.91
2022-12-18T05:49:15.949Z,97520.59
2022-12-18T05:52:00.701Z,97529.34
2022-12-18T05:54:45.670Z,97527.56
2022-12-18T05:57:30.677Z,97534.28
2022-12-18T06:00:15.644Z,97536.28
2022-12-18T06:03:00.570Z,97536.75
2022-12-18T06:05:45.489Z,97538.16
2022-12-18T06:08:31.504Z,97540.69
2022-12-18T06:11:16.481Z,97530.88
2022-12-18T06:14:01.373Z,97539.41
2022-12-18T06:16:46.260Z,97543.00
2022-12-18T06:19:31.310Z,97538.88
2022-12-18T06:22:16.261Z,97542.41
2022-12-18T06:25:01.318Z,97546.53
2022-12-18T06:27:46.788Z,97550.31
2022-12-18T06:30:31.618Z,97553.00
2022-12-18T06:33:16.711Z,97557.53
2022-12-18T06:36:01.544Z,97557.69
2022-12-18T06:38:47.063Z,97564.69
2022-12-18T06:41:32.007Z,97572.09
2022-12-18T06:44:16.968Z,97570.28
2022-12-18T06:47:01.648Z,97577.72
2022-12-18T06:49:46.511Z,97577.25
2022-12-18T06:52:31.483Z,97584.66
2022-12-18T06:55:16.393Z,97589.03
2022-12-18T06:58:01.263Z,97590.75
2022-12-18T07:00:46.178Z,97606.38
2022-12-18T07:03:31.128Z,97610.66
2022-12-18T07:06:15.868Z,97603.50
2022-12-18T07:09:00.729Z,97614.69
2022-12-18T07:11:45.537Z,97617.25
2022-12-18T07:14:30.492Z,97612.81
2022-12-18T07:17:15.371Z,97613.78
2022-12-18T07:20:00.303Z,97616.09
2022-12-18T07:22:45.334Z,97614.44
2022-12-18T07:25:30.261Z,97623.97
2022-12-18T07:28:17.557Z,97620.19
2022-12-18T07:31:02.468Z,97619.53
2022-12-18T07:33:47.405Z,97622.88
2022-12-18T07:36:32.249Z,97629.22
2022-12-18T07:39:17.057Z,97630.53
2022-12-18T07:42:01.977Z,97628.44
2022-12-18T07:44:46.885Z,97630.88
2022-12-18T07:47:31.889Z,97632.63
2022-12-18T07:50:16.635Z,97633.38
2022-12-18T07:53:01.596Z,97632.38
2022-12-18T07:56:25.000Z,97650.28
2022-12-18T07:58:51.403Z,97652.41
2022-12-18T08:01:36.528Z,97645.56
2022-12-18T08:04:21.744Z,97650.22
2022-12-18T08:07:06.605Z,97656.31
2022-12-18T08:09:51.476Z,97641.53
2022-12-18T08:12:36.403Z,97642.38
2022-12-18T08:15:21.271Z,97647.81
2022-12-18T08:18:10.122Z,97644.84
2022-12-18T08:20:57.525Z,97639.38
2022-12-18T08:23:43.502Z,97644.78
2022-12-18T08:26:28.979Z,97642.69
2022-12-18T08:29:17.319Z,97647.31
2022-12-18T08:32:06.450Z,97638.47
2022-12-18T08:34:51.352Z,97640.28
2022-12-18T08:37:36.188Z,97623.56
2022-12-18T08:40:21.106Z,97631.00
2022-12-18T08:43:05.970Z,97636.41
2022-12-18T08:45:51.064Z,97625.38
2022-12-18T08:48:35.875Z,97629.63
2022-12-18T08:51:20.792Z,97632.97
2022-12-18T08:54:06.483Z,97639.16
2022-12-18T08:56:51.499Z,97640.44
2022-12-18T08:59:36.363Z,97641.50
2022-12-18T09:02:21.396Z,97636.59
2022-12-18T09:05:06.680Z,97641.72
2022-12-18T09:07:51.529Z,97639.38
2022-12-18T09:10:41.695Z,97643.47
2022-12-18T09:13:27.953Z,97642.25
2022-12-18T09:16:12.797Z,97637.41
2022-12-18T09:18:57.714Z,97639.78
2022-12-18T09:21:47.771Z,97643.66
2022-12-18T09:24:33.541Z,97654.53
2022-12-18T09:27:18.324Z,97661.88
2022-12-18T09:30:03.632Z,97659.56
2022-12-18T09:32:48.476Z,97663.66
2022-12-18T09:35:33.466Z,97647.97
2022-12-18T09:38:18.828Z,97654.03
2022-12-18T09:41:03.973Z,97649.59
2022-12-18T09:43:48.881Z,97654.03
2022-12-18T09:46:33.778Z,97654.06
2022-12-18T09:49:18.679Z,97662.25
2022-12-18T09:52:04.115Z,97648.94
2022-12-18T09:54:49.144Z,97650.31
2022-12-18T09:57:33.984Z,97650.00
2022-12-18T10:00:18.895Z,97657.97
2022-12-18T10:03:04.048Z,97649.22
2022-12-18T10:05:49.285Z,97653.38
2022-12-18T10:08:34.143Z,97652.84
2022-12-18T10:11:19.096Z,97652.75
2022-12-18T10:14:04.070Z,97653.19
2022-12-18T10:16:48.938Z,97647.38
2022-12-18T10:19:34.025Z,97643.00
2022-12-18T10:22:19.075Z,97652.41
2022-12-18T10:25:04.333Z,97646.91
2022-12-18T10:27:49.184Z,97646.56
2022-12-18T10:30:34.100Z,97637.00
2022-12-18T10:33:18.958Z,97639.50
2022-12-18T10:36:03.893Z,97635.66
2022-12-18T10:38:48.839Z,97622.09
2022-12-18T10:41:33.728Z,97631.16
2022-12-18T10:44:18.601Z,97630.47
2022-12-18T10:47:06.183Z,97629.13
2022-12-18T10:49:53.902Z,97644.69
2022-12-18T10:52:45.058Z,97643.41
2022-12-18T10:55:32.969Z,97636.38
2022-12-18T10:58:22.183Z,97643.44
2022-12-18T11:01:10.316Z,97637.59
2022-12-18T11:04:00.313Z,97637.56
2022-12-18T11:06:47.242Z,97634.66
2022-12-18T11:09:32.139Z,97628.28
2022-12-18T11:12:17.148Z,97625.47
2022-12-18T11:15:02.105Z,97627.69
2022-12-18T11:17:46.943Z,97628.47
2022-12-18T11:20:31.884Z,97629.75
2022-12-18T11:23:16.751Z,97623.91
2022-12-18T11:26:01.706Z,97629.88
2022-12-18T11:28:46.681Z,97623.38
2022-12-18T11:31:32.092Z,97623.88
2022-12-18T11:34:32.448Z,97631.69
2022-12-18T11:37:17.711Z,97625.97
2022-12-18T11:40:02.697Z,97623.03
2022-12-18T11:42:47.510Z,97622.56
2022-12-18T11:45:32.465Z,97618.50
2022-12-18T11:48:17.429Z,97607.22
2022-12-18T11:51:02.425Z,97601.81
2022-12-18T11:53:47.276Z,97600.69
2022-12-18T11:56:32.143Z,97595.28
2022-12-18T11:59:17.115Z,97591.69
2022-12-18T12:02:02.053Z,97575.97
2022-12-18T12:04:48.460Z,97572.06
2022-12-18T12:07:33.370Z,97568.25
2022-12-18T12:10:18.307Z,97572.47
2022-12-18T12:13:03.138Z,97563.47
2022-12-18T12:15:48.101Z,97566.81
2022-12-18T12:18:32.889Z,97560.03
2022-12-18T12:21:17.741Z,97561.09
2022-12-18T12:24:02.860Z,97553.00
2022-12-18T12:26:47.704Z,97546.28
2022-12-18T12:29:32.529Z,97544.09
2022-12-18T12:32:17.334Z,97548.28
2022-12-18T12:35:07.770Z,97535.47
2022-12-18T12:37:54.451Z,97542.91
2022-12-18T12:41:02.394Z,97543.47
2022-12-18T12:43:50.675Z,97543.78
2022-12-18T12:46:36.168Z,97540.13
2022-12-18T12:49:21.671Z,97543.13
2022-12-18T12:52:08.147Z,97533.75
2022-12-18T12:54:52.934Z,97536.69
2022-12-18T12:57:38.373Z,97528.16
2022-12-18T13:00:23.295Z,97529.72
2022-12-18T13:03:08.167Z,97530.75
2022-12-18T13:05:53.591Z,97534.53
2022-12-18T13:08:39.111Z,97523.72
2022-12-18T13:11:23.941Z,97528.38
2022-12-18T13:14:09.821Z,97515.59
2022-12-18T13:16:56.270Z,97514.88
2022-12-18T13:19:41.724Z,97518.78
2022-12-18T13:22:26.712Z,97516.13
2022-12-18T13:25:11.737Z,97516.28
2022-12-18T13:27:56.715Z,97525.97
2022-12-18T13:30:41.675Z,97510.16
2022-12-18T13:33:26.453Z,97504.69
2022-12-18T13:36:11.899Z,97500.53
2022-12-18T13:38:56.750Z,97498.22
2022-12-18T13:41:42.146Z,97500.84
2022-12-18T13:44:27.058Z,97501.28
2022-12-18T13:47:12.005Z,97504.81
2022-12-18T13:49:58.639Z,97504.16
2022-12-18T13:52:43.526Z,97502.50
2022-12-18T13:55:28.466Z,97506.00
2022-12-18T13:58:13.297Z,97501.63
2022-12-18T14:00:58.311Z,97501.53
2022-12-18T14:03:43.665Z,97503.53
2022-12-18T14:06:29.573Z,97495.34
2022-12-18T14:09:20.339Z,97502.88
2022-12-18T14:12:06.550Z,97498.09
2022-12-18T14:14:52.536Z,97500.00
2022-12-18T14:17:40.243Z,97499.25
2022-12-18T14:20:25.088Z,97504.16
2022-12-18T14:23:09.888Z,97500.78
2022-12-18T14:25:54.940Z,97510.97
2022-12-18T14:28:39.676Z,97506.41
2022-12-18T14:31:24.711Z,97509.13
2022-12-18T14:34:09.525Z,97513.94
2022-12-18T14:36:54.522Z,97503.19
2022-12-18T14:39:39.382Z,97518.47
2022-12-18T14:42:24.281Z,97512.50
2022-12-18T14:45:16.180Z,97516.88
2022-12-18T14:48:01.137Z,97515.28
2022-12-18T14:50:46.030Z,97515.53
2022-12-18T14:53:30.884Z,97524.72
2022-12-18T14:56:15.687Z,97524.06
2022-12-18T14:59:00.526Z,97521.53
2022-12-18T15:01:45.566Z,97516.72
2022-12-18T15:04:30.929Z,97516.09
2022-12-18T15:07:15.860Z,97517.72
2022-12-18T15:10:02.212Z,97517.16
2022-12-18T15:12:47.347Z,97518.91
2022-12-18T15:15:32.341Z,97515.59
2022-12-18T15:18:17.351Z,97534.16
2022-12-18T15:21:02.349Z,97530.16
2022-12-18T15:23:47.289Z,97536.28
2022-12-18T15:26:32.387Z,97533.84
2022-12-18T15:29:17.455Z,97537.72
2022-12-18T15:32:02.746Z,97534.75
2022-12-18T15:34:47.668Z,97537.03
2022-12-18T15:37:32.734Z,97540.25
2022-12-18T15:40:18.023Z,97536.78
2022-12-18T15:43:03.055Z,97536.41
2022-12-18T15:45:48.072Z,97542.75
2022-12-18T15:48:33.484Z,97534.38
2022-12-18T15:51:18.475Z,97535.91
2022-12-18T15:54:03.386Z,97534.59
2022-12-18T15:56:48.357Z,97535.66
2022-12-18T15:59:33.240Z,97547.94
2022-12-18T16:02:18.397Z,97541.19
2022-12-18T16:05:03.564Z,97540.13
2022-12-18T16:07:48.836Z,97543.31
2022-12-18T16:10:33.999Z,97549.91
2022-12-18T16:13:18.926Z,97542.88
2022-12-18T16:16:03.920Z,97538.84
2022-12-18T16:18:48.682Z,97538.00
2022-12-18T16:21:34.236Z,97540.69
2022-12-18T16:24:19.576Z,97544.06
2022-12-18T16:27:04.591Z,97543.91
2022-12-18T16:29:49.552Z,97530.09
2022-12-18T16:32:34.513Z,97526.25
2022-12-18T16:35:19.576Z,97544.31
2022-12-18T16:38:04.335Z,97547.66
2022-12-18T16:40:49.296Z,97555.53
2022-12-18T16:43:34.224Z,97550.22
2022-12-18T16:46:19.231Z,97553.22
2022-12-18T16:49:04.189Z,97544.28
2022-12-18T16:51:49.315Z,97548.50
2022-12-18T16:54:34.521Z,97552.41
2022-12-18T16:57:19.772Z,97559.63
2022-12-18T17:00:06.333Z,97559.22
2022-12-18T17:02:51.765Z,97552.75
2022-12-18T17:05:37.024Z,97549.88
2022-12-18T17:08:21.952Z,97540.03
2022-12-18T17:11:07.022Z,97546.88
2022-12-18T17:13:52.032Z,97542.34
2022-12-18T17:16:36.878Z,97543.69
2022-12-18T17:19:22.845Z,97532.47
2022-12-18T17:22:07.697Z,97523.38
2022-12-18T17:24:52.614Z,97522.63
2022-12-18T17:27:37.559Z,97533.63
2022-12-18T17:30:22.454Z,97524.53
2022-12-18T17:33:07.514Z,97518.97
2022-12-18T17:35:52.463Z,97551.53
2022-12-18T17:38:37.457Z,97548.34
2022-12-18T17:41:22.292Z,97559.94
2022-12-18T17:44:07.143Z,97570.69
2022-12-18T17:46:52.269Z,97568.13
2022-12-18T17:49:37.535Z,97564.16
2022-12-18T17:52:22.584Z,97560.16
2022-12-18T17:55:07.541Z,97574.31
2022-12-18T17:57:52.419Z,97568.22
2022-12-18T18:00:37.183Z,97561.84
2022-12-18T18:03:22.439Z,97546.19
2022-12-18T18:06:07.595Z,97537.88
2022-12-18T18:08:52.563Z,97535.78
2022-12-18T18:11:37.569Z,97538.97
2022-12-18T18:14:22.456Z,97551.25
2022-12-18T18:17:07.931Z,97555.06
2022-12-18T18:19:52.962Z,97556.16
2022-12-18T18:22:38.502Z,97556.16
2022-12-18T18:25:23.248Z,97557.69
2022-12-18T18:28:08.674Z,97554.41
2022-12-18T18:30:53.590Z,97548.53
2022-12-18T18:33:38.899Z,97549.00
2022-12-18T18:36:24.178Z,97560.06
2022-12-18T18:39:09.091Z,97556.31
2022-12-18T18:41:55.721Z,97552.09
2022-12-18T18:44:44.433Z,97564.75
2022-12-18T18:47:32.236Z,97547.63
2022-12-18T18:50:17.281Z,97546.09
2022-12-18T18:53:02.315Z,97548.41
2022-12-18T18:55:59.083Z,97550.75
2022-12-18T18:58:52.565Z,97548.97
2022-12-18T19:01:37.591Z,97562.81
2022-12-18T19:04:23.041Z,97569.00
2022-12-18T19:07:08.153Z,97579.97
2022-12-18T19:09:53.032Z,97580.22
2022-12-18T19:12:39.547Z,97567.72
2022-12-18T19:15:25.490Z,97562.94
2022-12-18T19:18:10.424Z,97571.25
2022-12-18T19:20:55.533Z,97554.69
2022-12-18T19:23:40.819Z,97547.75
2022-12-18T19:26:28.061Z,97549.22
2022-12-18T19:29:13.189Z,97541.13
2022-12-18T19:31:58.279Z,97544.69
2022-12-18T19:34:43.376Z,97545.66
2022-12-18T19:37:30.718Z,97547.91
2022-12-18T19:40:15.873Z,97534.88
2022-12-18T19:43:01.290Z,97544.38
2022-12-18T19:45:46.351Z,97551.78
2022-12-18T19:48:31.234Z,97542.91
2022-12-18T19:51:16.225Z,97558.53
2022-12-18T19:54:01.684Z,97549.78
2022-12-18T19:56:47.782Z,97557.16
2022-12-18T19:59:32.782Z,97560.34
2022-12-18T20:02:18.511Z,97557.13
2022-12-18T20:05:03.934Z,97560.66
2022-12-18T20:07:49.050Z,97560.06
2022-12-18T20:10:33.906Z,97565.88
2022-12-18T20:13:18.900Z,97550.84
2022-12-18T20:16:03.768Z,97543.78
2022-12-18T20:18:48.870Z,97537.03
2022-12-18T20:21:34.274Z,97543.97
2022-12-18T20:24:19.414Z,97530.19
2022-12-18T20:27:04.534Z,97527.09
2022-12-18T20:29:49.586Z,97541.81
2022-12-18T20:32:37.242Z,97535.44
2022-12-18T20:35:22.485Z,97529.44
2022-12-18T20:38:08.327Z,97522.00
2022-12-18T20:40:54.507Z,97520.13
2022-12-18T20:43:39.754Z,97524.56
2022-12-18T20:46:24.942Z,97536.34
2022-12-18T20:49:09.773Z,97534.28
2022-12-18T20:51:54.508Z,97532.91
2022-12-18T20:54:39.382Z,97532.25
2022-12-18T20:57:24.224Z,97525.78
2022-12-18T21:00:09.219Z,97521.25
2022-12-18T21:02:56.237Z,97509.22
2022-12-18T21:05:41.593Z,97515.16
2022-12-18T21:08:26.440Z,97515.38
2022-12-18T21:11:11.440Z,97527.53
2022-12-18T21:13:56.417Z,97520.94
2022-12-18T21:16:41.278Z,97518.66
2022-12-18T21:19:26.209Z,97506.38
2022-12-18T21:22:10.957Z,97501.75
2022-12-18T21:24:56.416Z,97500.81
2022-12-18T21:27:41.316Z,97509.75
2022-12-18T21:30:26.277Z,97506.84
2022-12-18T21:33:11.189Z,97511.59
2022-12-18T21:35:56.134Z,97507.81
2022-12-18T21:38:41.273Z,97504.28
2022-12-18T21:41:26.717Z,97509.13
2022-12-18T21:44:11.640Z,97513.22
2022-12-18T21:47:02.445Z,97510.97
2022-12-18T21:49:54.644Z,97501.47
2022-12-18T21:52:39.503Z,97500.00
2022-12-18T21:55:24.527Z,97504.22
2022-12-18T21:58:09.441Z,97491.19
2022-12-18T22:00:54.318Z,97501.69
2022-12-18T22:03:39.360Z,97512.75
2022-12-18T22:06:24.066Z,97507.47
2022-12-18T22:09:09.296Z,97506.91
2022-12-18T22:11:54.083Z,97501.97
2022-12-18T22:14:38.957Z,97508.56
2022-12-18T22:17:23.769Z,97509.72
2022-12-18T22:20:09.160Z,97511.06
2022-12-18T22:22:54.181Z,97515.16
2022-12-18T22:25:39.902Z,97510.53
2022-12-18T22:28:25.189Z,97503.13
2022-12-18T22:31:10.061Z,97504.28
2022-12-18T22:33:54.965Z,97506.84
2022-12-18T22:36:40.048Z,97515.72
2022-12-18T22:39:25.063Z,97514.63
2022-12-18T22:42:10.603Z,97517.75
2022-12-18T22:44:55.416Z,97513.94
2022-12-18T22:47:40.469Z,97534.84
2022-12-18T22:50:25.454Z,97532.84
2022-12-18T22:53:10.482Z,97528.78
2022-12-18T22:55:55.452Z,97537.72
2022-12-18T22:58:40.376Z,97545.03
2022-12-18T23:01:25.278Z,97529.56
2022-12-18T23:04:10.504Z,97528.25
2022-12-18T23:06:55.580Z,97526.66
2022-12-18T23:09:40.505Z,97527.81
2022-12-18T23:12:25.362Z,97526.16
2022-12-18T23:15:10.326Z,97517.88
2022-12-18T23:17:55.343Z,97521.34
2022-12-18T23:20:40.264Z,97504.22
2022-12-18T23:23:26.704Z,97511.38
2022-12-18T23:26:11.726Z,97516.22
2022-12-18T23:28:56.639Z,97523.13
2022-12-18T23:31:41.707Z,97521.03
2022-12-18T23:34:27.229Z,97514.75
2022-12-18T23:37:12.232Z,97509.72
2022-12-18T23:39:57.198Z,97516.81
2022-12-18T23:42:42.206Z,97524.56
2022-12-18T23:45:27.173Z,97527.44
2022-12-18T23:48:12.032Z,97509.47
2022-12-18T23:50:56.925Z,97507.84
2022-12-18T23:53:41.869Z,97507.34
2022-12-18T23:56:26.936Z,97508.75
2022-12-18T23:59:11.870Z,97503.06
